Time;durP1;ratioP1;P1;durP2;ratioP2;P2;SDS_P1;SDS_P2;PMS_P1;PMS_P2;Temp;Humidity;BMP_temperature;BMP_pressure;BME280_temperature;BME280_humidity;BME280_pressure;Samples;Min_cycle;Max_cycle;Signal;HPM_P1;HPM_P2
2022/06/23 00:00:58;;;;;;;13.57;8.75;;;;;;;16.76;81.03;68628.06;4981618;28;20078;-89
2022/06/23 00:03:23;;;;;;;13.25;8.77;;;;;;;;;;4973444;28;20443;-89
2022/06/23 00:05:56;;;;;;;14.55;8.13;;;;;;;16.67;81.78;68621.06;4970642;28;20047;-90
2022/06/23 00:08:21;;;;;;;11.68;8.63;;;;;;;;;;4978246;28;20046;-91
2022/06/23 00:11:00;;;;;;;15.68;9.43;;;;;;;16.62;81.50;68620.72;4974464;28;20054;-89
2022/06/23 00:13:35;;;;;;;12.77;8.43;;;;;;;16.58;81.40;68621.56;4990438;28;20042;-89
2022/06/23 00:16:01;;;;;;;15.05;9.18;;;;;;;;;;4988318;28;20078;-88
2022/06/23 00:18:33;;;;;;;14.95;9.95;;;;;;;16.48;82.08;68605.34;4966033;28;20402;-89
2022/06/23 00:21:01;;;;;;;13.07;9.30;;;;;;;;;;4962451;28;20069;-89
2022/06/23 00:23:33;;;;;;;14.48;9.20;;;;;;;16.42;83.06;68601.75;4980724;28;20046;-89
2022/06/23 00:26:01;;;;;;;15.38;9.70;;;;;;;16.36;83.34;68594.34;4982434;28;20043;-88
2022/06/23 00:28:26;;;;;;;12.40;9.52;;;;;;;;;;4973030;28;20039;-88
2022/06/23 00:31:01;;;;;;;17.30;9.77;;;;;;;16.25;84.62;68579.69;4970767;28;20042;-88
2022/06/23 00:33:47;;;;;;;17.52;10.45;;;;;;;;;;4966426;28;20630;-88
2022/06/23 00:36:24;;;;;;;15.95;10.18;;;;;;;16.19;84.14;68568.03;4954410;28;20117;-89
2022/06/23 00:38:50;;;;;;;11.65;9.23;;;;;;;16.09;85.04;68564.16;4975308;28;20117;-88
2022/06/23 00:41:20;;;;;;;14.40;9.90;;;;;;;16.09;85.05;68562.03;4969586;28;20050;-88
2022/06/23 00:43:49;;;;;;;16.08;10.20;;;;;;;16.01;85.49;68556.16;4990409;28;20434;-88
2022/06/23 00:46:41;;;;;;;15.15;10.00;;;;;;;15.92;85.46;68545.34;4981501;28;20126;-89
2022/06/23 00:49:21;;;;;;;18.00;9.90;;;;;;;15.90;85.81;68545.72;4967738;28;20046;-88
2022/06/23 00:51:50;;;;;;;15.70;10.40;;;;;;;;;;5005676;28;20510;-88
2022/06/23 00:54:36;;;;;;;16.30;10.73;;;;;;;15.82;86.16;68533.94;5006214;28;20683;-88
2022/06/23 00:57:01;;;;;;;18.50;10.75;;;;;;;;;;4981383;28;20060;-88
2022/06/23 00:59:33;;;;;;;17.83;11.60;;;;;;;15.74;87.38;68528.09;4972844;28;20451;-88
2022/06/23 01:02:14;;;;;;;19.65;12.13;;;;;;;15.73;87.16;68522.13;4972401;28;20290;-88
2022/06/23 01:04:39;;;;;;;18.75;10.63;;;;;;;;;;4972486;28;20046;-89
2022/06/23 01:07:43;;;;;;;17.92;11.30;;;;;;;15.66;87.82;68508.22;5004550;28;20571;-88
2022/06/23 01:10:32;;;;;;;15.00;10.85;;;;;;;15.64;88.23;68511.84;4940056;28;20121;-89
2022/06/23 01:13:16;;;;;;;;;;;;;;;15.63;86.91;68512.84;4987536;28;20034;-88
2022/06/23 01:15:49;;;;;;;15.35;11.07;;;;;;;15.56;88.42;68497.97;4993838;28;20412;-89
2022/06/23 01:18:23;;;;;;;17.90;10.98;;;;;;;15.53;88.33;68502.56;4974640;28;20038;-89
2022/06/23 01:20:51;;;;;;;15.80;10.75;;;;;;;;;;4991016;28;20054;-89
2022/06/23 01:23:16;;;;;;;18.95;11.60;;;;;;;15.64;87.14;68517.22;5008038;28;20102;-89
2022/06/23 01:26:11;;;;;;;15.85;10.90;;;;;;;15.62;87.44;68509.56;5008002;28;20038;-88
2022/06/23 01:28:41;;;;;;;16.77;10.70;;;;;;;15.60;87.18;68509.41;5005325;28;20050;-89
2022/06/23 01:31:15;;;;;;;15.73;11.00;;;;;;;15.51;88.63;68491.69;4986780;28;20943;-89
2022/06/23 01:33:57;;;;;;;17.77;11.30;;;;;;;15.49;88.39;68495.34;4974758;28;20046;-89
2022/06/23 01:36:40;;;;;;;18.27;10.95;;;;;;;;;;4957260;28;20038;-91
2022/06/23 01:39:32;;;;;;;16.85;10.68;;;;;;;15.47;87.91;68487.69;4973874;28;20038;-88
2022/06/23 01:42:04;;;;;;;17.40;10.43;;;;;;;15.47;87.80;68492.47;4989673;28;20557;-88
2022/06/23 01:44:42;;;;;;;16.77;11.05;;;;;;;;;;4989682;28;20050;-89
2022/06/23 01:47:32;;;;;;;19.67;11.00;;;;;;;15.37;88.57;68481.66;4973891;28;20046;-89
2022/06/23 01:50:12;;;;;;;16.75;11.90;;;;;;;15.36;89.27;68480.50;4971946;28;20050;-89
2022/06/23 01:52:40;;;;;;;15.27;10.95;;;;;;;15.33;88.61;68477.09;4962169;28;20054;-88
2022/06/23 01:55:13;;;;;;;15.57;10.95;;;;;;;;;;4972362;28;20042;-88
2022/06/23 01:57:46;;;;;;;18.33;11.30;;;;;;;15.32;88.10;68476.53;4973889;28;20103;-87
2022/06/23 02:00:19;;;;;;;17.10;11.70;;;;;;;15.32;88.87;68475.97;4980993;28;20046;-88
2022/06/23 02:03:10;;;;;;;17.30;11.45;;;;;;;15.30;88.76;68473.69;4989238;28;20589;-87
2022/06/23 02:05:37;;;;;;;16.45;11.50;;;;;;;;;;4990040;28;20046;-88
2022/06/23 02:08:07;;;;;;;16.90;11.43;;;;;;;;;;4988080;28;20117;-88
2022/06/23 02:10:49;;;;;;;14.82;11.65;;;;;;;15.19;89.47;68463.84;4971053;28;20042;-88
2022/06/23 02:13:23;;;;;;;17.30;11.13;;;;;;;15.21;88.89;68463.44;4979601;28;20501;-88
2022/06/23 02:16:05;;;;;;;15.35;12.15;;;;;;;;;;4971392;28;20048;-87
2022/06/23 02:18:49;;;;;;;17.48;10.93;;;;;;;15.18;88.62;68460.03;4983639;28;20039;-87
2022/06/23 02:21:20;;;;;;;17.70;11.18;;;;;;;15.10;89.52;68454.16;4997710;28;20138;-88
2022/06/23 02:23:58;;;;;;;16.15;11.60;;;;;;;15.09;89.44;68450.91;4969559;28;20069;-88
2022/06/23 02:26:33;;;;;;;15.95;11.98;;;;;;;15.06;90.30;68449.59;4987347;28;20498;-88
2022/06/23 02:29:21;;;;;;;16.15;12.15;;;;;;;15.05;89.66;68446.34;4987774;28;20482;-88
2022/06/23 02:31:55;;;;;;;20.08;11.27;;;;;;;15.03;89.62;68438.72;4969434;28;20053;-88
2022/06/23 02:34:34;;;;;;;17.05;12.35;;;;;;;14.98;89.69;68441.06;4969705;28;20039;-88
2022/06/23 02:37:25;;;;;;;19.17;11.35;;;;;;;14.99;90.26;68438.94;4970960;28;20031;-89
2022/06/23 02:39:53;;;;;;;15.40;12.18;;;;;;;;;;4951479;28;20071;-89
2022/06/23 02:42:35;;;;;;;16.17;12.05;;;;;;;14.93;89.92;68432.13;4969863;28;20418;-89
2022/06/23 02:45:22;;;;;;;16.10;13.88;;;;;;;14.84;91.21;68425.13;4952621;28;20050;-89
2022/06/23 02:48:03;;;;;;;16.17;12.13;;;;;;;14.84;91.07;68422.44;4968402;28;20117;-89
2022/06/23 02:50:41;;;;;;;16.73;11.50;;;;;;;;;;4981283;28;20038;-89
2022/06/23 02:53:27;;;;;;;16.20;12.43;;;;;;;;;;4982481;28;20058;-87
2022/06/23 02:56:03;;;;;;;18.05;12.02;;;;;;;14.82;91.32;68420.75;4951890;28;20069;-89
2022/06/23 02:58:55;;;;;;;16.83;11.48;;;;;;;14.84;90.67;68425.69;4984397;28;20049;-87
2022/06/23 03:01:28;;;;;;;15.85;11.27;;;;;;;14.84;90.17;68423.00;4949833;28;20051;-88
2022/06/23 03:04:01;;;;;;;21.45;11.77;;;;;;;;;;4965997;28;20039;-89
2022/06/23 03:06:56;;;;;;;17.10;12.20;;;;;;;;;;4951580;28;20043;-89
2022/06/23 03:09:24;;;;;;;16.63;11.77;;;;;;;14.82;90.79;68422.84;4976693;28;20047;-88
2022/06/23 03:12:01;;;;;;;19.00;13.00;;;;;;;14.78;91.01;68418.84;4982041;28;20137;-89
2022/06/23 03:14:45;;;;;;;15.48;12.65;;;;;;;14.75;91.25;68415.44;4960730;28;20375;-87
2022/06/23 03:17:13;;;;;;;18.88;13.45;;;;;;;14.70;92.09;68407.06;4991361;28;20057;-88
2022/06/23 03:19:44;;;;;;;19.05;12.55;;;;;;;14.69;91.52;68408.03;5001413;28;20050;-88
2022/06/23 03:22:23;;;;;;;20.38;12.43;;;;;;;;;;4984182;28;20046;-88
2022/06/23 03:25:03;;;;;;;;;;;;;;;14.68;91.08;68404.22;4968028;28;20042;-88
2022/06/23 03:27:35;;;;;;;17.98;12.38;;;;;;;14.58;91.68;68396.66;4985680;28;19917;-88
2022/06/23 03:30:06;;;;;;;15.07;11.57;;;;;;;14.53;92.13;68387.69;4974714;28;20141;-87
2022/06/23 03:32:40;;;;;;;17.17;12.75;;;;;;;14.56;92.44;68391.69;4964087;28;20039;-88
2022/06/23 03:35:12;;;;;;;18.55;12.52;;;;;;;14.55;92.61;68389.97;4956412;28;20042;-87
2022/06/23 03:38:12;;;;;;;18.40;12.13;;;;;;;14.55;92.50;68389.97;4957854;28;20051;-87
2022/06/23 03:44:05;;;;;;;16.20;11.65;;;;;;;14.55;92.22;68390.56;4977072;28;20050;-88
2022/06/23 03:46:39;;;;;;;17.50;12.38;;;;;;;14.58;91.57;68393.97;4981952;28;20046;-88
2022/06/23 03:49:13;;;;;;;17.55;11.75;;;;;;;;;;4969920;28;20129;-89
2022/06/23 03:51:47;;;;;;;15.27;11.68;;;;;;;;;;4965135;28;20045;-88
2022/06/23 03:54:23;;;;;;;16.55;12.02;;;;;;;14.61;91.86;68400.06;4965215;28;20050;-88
2022/06/23 03:57:04;;;;;;;17.92;12.05;;;;;;;;;;4951383;28;20073;-87
2022/06/23 04:00:07;;;;;;;17.45;11.50;;;;;;;14.59;92.91;68394.56;4968335;28;20051;-88
2022/06/23 04:02:42;;;;;;;16.77;11.55;;;;;;;14.61;91.95;68402.75;4981404;28;20443;-88
2022/06/23 04:05:15;;;;;;;17.45;12.20;;;;;;;;;;4966193;28;20062;-89
2022/06/23 04:07:46;;;;;;;20.08;11.65;;;;;;;14.71;92.02;68408.22;4964750;28;20034;-88
2022/06/23 04:10:14;;;;;;;16.95;11.77;;;;;;;14.75;91.77;68412.75;4958009;28;20505;-88
2022/06/23 04:12:48;;;;;;;16.48;12.05;;;;;;;14.80;91.10;68423.25;4959880;28;20516;-88
2022/06/23 04:15:21;;;;;;;15.25;11.43;;;;;;;14.79;91.69;68416.75;4971466;28;20532;-88
2022/06/23 04:18:16;;;;;;;19.38;11.57;;;;;;;14.81;91.67;68419.03;4981534;28;20150;-87
2022/06/23 04:21:00;;;;;;;14.48;10.93;;;;;;;14.86;91.19;68425.28;4975788;28;20672;-87
2022/06/23 04:23:54;;;;;;;18.13;12.25;;;;;;;14.91;91.43;68430.41;4954781;28;20054;-87
2022/06/23 04:26:26;;;;;;;18.33;11.02;;;;;;;14.92;90.83;68430.97;4946435;28;20126;-87
2022/06/23 04:28:55;;;;;;;14.23;11.15;;;;;;;14.97;91.45;68439.94;4965613;28;20042;-87
2022/06/23 04:31:31;;;;;;;15.02;9.98;;;;;;;;;;4963815;28;20038;-88
2022/06/23 04:33:58;;;;;;;17.45;10.80;;;;;;;15.11;90.43;68455.31;4968463;28;20448;-87
2022/06/23 04:36:26;;;;;;;15.02;10.65;;;;;;;15.16;90.07;68458.31;4980872;28;20050;-86
2022/06/23 04:39:40;;;;;;;13.00;10.70;;;;;;;15.24;89.39;68467.41;4967786;28;20516;-87
2022/06/23 04:42:14;;;;;;;15.35;10.95;;;;;;;15.30;89.50;68473.69;4952510;28;20076;-87
2022/06/23 04:44:49;;;;;;;17.27;11.10;;;;;;;15.31;90.33;68477.53;4983781;28;20061;-87
2022/06/23 04:47:22;;;;;;;13.63;9.95;;;;;;;15.37;89.59;68481.66;4963704;28;20418;-86
2022/06/23 04:49:53;;;;;;;14.88;10.50;;;;;;;15.45;89.49;68490.19;4985951;28;20046;-88
2022/06/23 04:52:27;;;;;;;14.85;10.15;;;;;;;15.48;89.29;68488.28;4985165;28;20057;-87
2022/06/23 04:54:57;;;;;;;16.38;9.70;;;;;;;15.56;88.61;68503.31;4965121;28;20405;-88
2022/06/23 04:57:29;;;;;;;15.45;10.00;;;;;;;15.64;88.23;68517.22;4980547;28;20453;-88
2022/06/23 04:59:58;;;;;;;21.15;10.93;;;;;;;15.73;87.77;68516.19;4965654;28;20042;-87
2022/06/23 05:02:38;;;;;;;13.23;9.38;;;;;;;;;;4966671;28;20042;-89
2022/06/23 05:05:14;;;;;;;15.60;10.10;;;;;;;15.82;88.19;68526.44;4977394;28;20126;-87
2022/06/23 05:08:15;;;;;;;14.48;9.07;;;;;;;15.89;86.83;68539.81;4967430;28;20117;-87
2022/06/23 05:10:58;;;;;;;14.55;9.50;;;;;;;15.99;87.11;68551.19;4903320;28;20066;-87
2022/06/23 05:13:25;;;;;;;13.80;9.55;;;;;;;;;;4973096;28;20427;-87
2022/06/23 05:16:02;;;;;;;13.55;9.18;;;;;;;16.15;86.10;68562.94;4986601;28;20046;-86
2022/06/23 05:18:31;;;;;;;14.55;9.45;;;;;;;16.27;86.08;68581.97;4979120;28;20046;-87
2022/06/23 05:21:04;;;;;;;10.98;8.50;;;;;;;16.39;85.91;68595.66;4964476;28;20050;-86
2022/06/23 05:23:43;;;;;;;14.20;9.05;;;;;;;16.46;85.11;68603.63;4961219;28;20064;-88
2022/06/23 05:26:13;;;;;;;15.30;9.05;;;;;;;;;;4964481;28;20047;-87
2022/06/23 05:28:41;;;;;;;15.30;9.10;;;;;;;;;;5018133;23;20145;-77
2022/06/23 05:31:15;;;;;;;14.60;8.40;;;;;;;16.81;83.26;68641.88;4988938;28;20101;-77
2022/06/23 05:33:46;;;;;;;15.85;8.60;;;;;;;;;;4989534;28;20503;-77
2022/06/23 05:36:36;;;;;;;11.85;8.75;;;;;;;17.09;82.71;68673.22;4986613;28;20057;-77
2022/06/23 05:39:22;;;;;;;10.95;8.38;;;;;;;17.20;81.85;68685.75;4982536;28;20046;-76
2022/06/23 05:41:51;;;;;;;14.10;8.40;;;;;;;17.34;81.79;68701.16;4984434;28;20046;-77
2022/06/23 05:44:22;;;;;;;14.02;8.13;;;;;;;17.45;80.35;68715.84;4986063;28;20042;-77
2022/06/23 05:46:49;;;;;;;12.35;7.78;;;;;;;17.60;80.05;68724.88;4988648;28;20042;-77
2022/06/23 05:49:20;;;;;;;9.95;7.57;;;;;;;17.72;79.32;68743.97;4988013;28;20120;-77
2022/06/23 05:51:56;;;;;;;14.00;7.25;;;;;;;17.81;77.36;68753.69;4988514;28;20049;-76
2022/06/23 05:54:40;;;;;;;10.23;6.57;;;;;;;;;;4986278;28;20445;-76
2022/06/23 05:57:25;;;;;;;11.20;6.55;;;;;;;18.08;75.50;68777.97;4984960;28;20041;-78
2022/06/23 06:00:11;;;;;;;8.90;5.93;;;;;;;18.23;75.58;68803.19;4984255;28;20509;-76
2022/06/23 06:02:50;;;;;;;13.10;6.85;;;;;;;18.35;75.39;68819.00;4982756;28;20050;-78
2022/06/23 06:05:26;;;;;;;13.27;7.20;;;;;;;;;;4984497;28;20057;-77
2022/06/23 06:07:52;;;;;;;9.75;6.07;;;;;;;18.52;73.26;68833.03;4987207;28;20042;-76
2022/06/23 06:10:20;;;;;;;11.57;6.03;;;;;;;18.62;72.35;68844.47;4983316;28;20048;-76
2022/06/23 06:12:46;;;;;;;10.18;5.72;;;;;;;;;;4983082;28;20460;-76
2022/06/23 06:15:15;;;;;;;9.15;5.43;;;;;;;;;;4983247;28;20145;-76
2022/06/23 06:17:41;;;;;;;9.02;5.57;;;;;;;19.05;70.99;68892.44;4987728;28;20058;-76
2022/06/23 06:20:09;;;;;;;8.45;5.65;;;;;;;19.15;69.67;68903.28;4988866;28;20044;-77
2022/06/23 06:22:48;;;;;;;8.80;5.20;;;;;;;19.27;70.03;68916.44;4988820;28;20061;-77
2022/06/23 06:25:24;;;;;;;10.00;5.35;;;;;;;19.38;69.20;68929.00;4989012;28;20054;-77
2022/06/23 06:27:50;;;;;;;8.40;5.00;;;;;;;19.52;68.29;68944.44;4987549;28;20105;-78
2022/06/23 06:30:19;;;;;;;10.65;4.65;;;;;;;19.60;68.25;68948.19;4988977;28;20054;-78
2022/06/23 06:32:45;;;;;;;;;;;;;;;19.72;67.90;68961.91;4991532;28;20046;-78
2022/06/23 06:35:38;;;;;;;5.95;4.63;;;;;;;19.75;66.27;68964.78;4988269;28;19925;-76
2022/06/23 06:38:15;;;;;;;7.72;4.57;;;;;;;19.90;66.12;68989.44;4991653;28;20042;-78
2022/06/23 06:40:46;;;;;;;7.70;4.05;;;;;;;20.03;65.38;69001.63;4990069;28;20125;-78
2022/06/23 06:43:20;;;;;;;8.18;4.28;;;;;;;20.13;65.62;69015.16;4987920;28;20042;-78
2022/06/23 06:45:45;;;;;;;7.85;4.00;;;;;;;;;;4989932;28;20046;-78
2022/06/23 06:48:23;;;;;;;6.95;4.20;;;;;;;20.50;64.17;69046.66;4988958;28;20096;-77
2022/06/23 06:50:57;;;;;;;9.83;4.43;;;;;;;20.68;63.91;69069.38;4980227;28;20509;-77
2022/06/23 06:53:37;;;;;;;5.65;4.10;;;;;;;20.87;63.42;69095.41;4990421;28;20644;-77
2022/06/23 06:56:13;;;;;;;6.63;4.00;;;;;;;20.90;61.50;69098.84;4988287;28;20089;-78
2022/06/23 06:58:45;;;;;;;6.65;3.80;;;;;;;21.01;61.50;69105.44;4990447;28;20088;-77
2022/06/23 07:01:21;;;;;;;6.55;3.80;;;;;;;21.06;61.08;69111.16;4989669;28;20038;-77
2022/06/23 07:03:49;;;;;;;5.18;3.88;;;;;;;21.17;61.53;69124.28;4986619;28;20039;-76
2022/06/23 07:06:27;;;;;;;7.63;4.05;;;;;;;;;;4978234;28;20048;-77
2022/06/23 07:09:03;;;;;;;9.18;3.97;;;;;;;21.38;60.64;69147.22;4986848;28;20120;-76
2022/06/23 07:11:32;;;;;;;9.45;3.97;;;;;;;;;;4987890;28;20820;-77
2022/06/23 07:14:15;;;;;;;5.60;3.50;;;;;;;21.46;59.85;69156.34;4988055;28;20042;-77
2022/06/23 07:16:57;;;;;;;6.22;3.78;;;;;;;21.63;60.78;69175.81;4986467;28;20070;-76
2022/06/23 07:19:29;;;;;;;6.95;3.70;;;;;;;;;;4997891;28;20066;-77
2022/06/23 07:22:09;;;;;;;9.65;4.03;;;;;;;21.96;59.03;69217.31;4990315;28;20049;-77
2022/06/23 07:25:01;;;;;;;4.55;3.08;;;;;;;22.07;59.62;69224.47;4990528;28;20046;-78
2022/06/23 07:27:37;;;;;;;5.82;3.38;;;;;;;22.21;58.49;69240.53;4986032;28;20413;-77
2022/06/23 07:30:11;;;;;;;6.97;3.47;;;;;;;22.29;58.61;69254.53;4985513;28;20073;-76
2022/06/23 07:32:46;;;;;;;6.45;3.22;;;;;;;22.49;57.04;69271.44;4986003;28;20046;-76
2022/06/23 07:35:12;;;;;;;6.47;3.28;;;;;;;;;;4986189;28;20136;-77
2022/06/23 07:37:52;;;;;;;7.25;3.17;;;;;;;22.67;56.41;69291.47;4986746;28;20097;-77
2022/06/23 07:40:20;;;;;;;7.78;3.53;;;;;;;;;;4985494;28;20157;-77
2022/06/23 07:42:55;;;;;;;7.18;2.88;;;;;;;22.93;54.78;69320.69;4985995;28;20046;-77
2022/06/23 07:45:46;;;;;;;4.78;3.25;;;;;;;22.93;54.50;69321.28;5001602;28;20046;-76
2022/06/23 07:48:11;;;;;;;5.20;2.55;;;;;;;23.07;54.29;69336.75;4986924;28;20047;-77
2022/06/23 07:50:37;;;;;;;6.65;2.80;;;;;;;23.25;54.09;69356.22;4989622;28;20053;-76
2022/06/23 07:53:02;;;;;;;6.97;3.35;;;;;;;;;;4984693;28;20097;-77
2022/06/23 07:55:43;;;;;;;5.43;2.70;;;;;;;23.56;52.91;69391.75;4985771;28;20129;-77
2022/06/23 07:58:08;;;;;;;5.05;2.80;;;;;;;23.52;53.08;69387.16;4978519;28;20764;-77
2022/06/23 08:00:40;;;;;;;5.30;2.78;;;;;;;23.69;52.57;69405.50;4987010;28;20084;-77
2022/06/23 08:03:13;;;;;;;5.75;2.50;;;;;;;23.86;52.56;69422.28;4985461;28;20058;-77
2022/06/23 08:05:42;;;;;;;4.45;2.83;;;;;;;;;;4986045;28;20141;-77
2022/06/23 08:08:15;;;;;;;7.35;2.80;;;;;;;23.96;52.16;69433.16;4989627;28;20046;-76
2022/06/23 08:10:41;;;;;;;7.57;2.75;;;;;;;24.10;52.21;69452.50;4990165;28;20042;-77
2022/06/23 08:13:22;;;;;;;5.03;2.55;;;;;;;24.24;51.21;69461.97;4990126;28;20092;-77
2022/06/23 08:18:47;;;;;;;4.38;2.83;;;;;;;24.43;51.47;69486.50;4987723;28;20044;-76
2022/06/23 08:21:20;;;;;;;4.65;2.47;;;;;;;24.66;50.26;69514.47;4985374;28;20050;-77
2022/06/23 08:24:06;;;;;;;5.32;2.70;;;;;;;24.75;49.87;69522.63;4972952;28;20054;-77
2022/06/23 08:26:32;;;;;;;6.10;2.38;;;;;;;;;;4977109;28;20062;-76
2022/06/23 08:29:00;;;;;;;7.88;2.65;;;;;;;25.03;48.03;69553.03;4990225;28;20070;-77
2022/06/23 08:31:27;;;;;;;6.03;2.70;;;;;;;24.97;49.40;69550.03;4995433;28;20058;-76
2022/06/23 08:33:52;;;;;;;6.93;3.00;;;;;;;25.18;48.61;69568.13;4983792;28;20089;-76
2022/06/23 08:36:25;;;;;;;6.00;2.65;;;;;;;25.35;48.77;69591.94;4990502;28;20794;-77
2022/06/23 08:39:07;;;;;;;5.60;2.92;;;;;;;25.42;47.47;69600.53;4986876;28;20043;-77
2022/06/23 08:41:35;;;;;;;4.72;2.70;;;;;;;;;;4998551;28;20528;-77
2022/06/23 08:44:08;;;;;;;5.78;2.80;;;;;;;25.44;47.71;69602.81;4990528;28;20042;-75
2022/06/23 08:46:51;;;;;;;8.25;3.22;;;;;;;25.60;46.60;69617.88;4992865;28;20050;-77
2022/06/23 08:49:37;;;;;;;4.75;2.75;;;;;;;25.70;47.66;69631.50;4988055;28;20062;-77
2022/06/23 08:52:25;;;;;;;5.50;2.60;;;;;;;25.83;46.70;69643.72;4989431;28;20038;-77
2022/06/23 08:54:50;;;;;;;;;;;;;;;25.75;47.36;69634.53;4986983;28;20043;-77
2022/06/23 08:57:33;;;;;;;6.60;2.87;;;;;;;26.02;46.69;69667.69;4997058;28;19925;-77
2022/06/23 09:00:11;;;;;;;5.60;3.40;;;;;;;25.97;45.50;69658.66;4987334;28;20289;-77
2022/06/23 09:02:39;;;;;;;8.30;2.95;;;;;;;26.33;46.63;69699.41;4970809;28;20053;-77
2022/06/23 09:05:26;;;;;;;6.53;3.15;;;;;;;26.63;45.67;69733.28;4969116;28;20410;-77
2022/06/23 09:08:06;;;;;;;6.30;3.33;;;;;;;26.57;44.83;69723.66;4989150;28;20111;-77
2022/06/23 09:10:50;;;;;;;6.53;2.90;;;;;;;26.66;45.83;69736.72;4986319;28;20046;-77
2022/06/23 09:13:41;;;;;;;6.55;3.40;;;;;;;26.67;45.53;69740.63;4988533;28;20744;-77
2022/06/23 09:16:32;;;;;;;7.00;3.30;;;;;;;26.71;45.20;69741.91;4984893;28;20062;-76
2022/06/23 09:19:15;;;;;;;6.20;3.08;;;;;;;27.11;44.42;69786.72;4989575;28;20104;-77
2022/06/23 09:22:14;;;;;;;5.65;2.97;;;;;;;27.16;44.70;69792.47;4984508;28;20448;-77
2022/06/23 09:24:46;;;;;;;5.68;3.03;;;;;;;27.31;44.39;69809.72;4967621;28;20086;-76
2022/06/23 09:27:50;;;;;;;9.07;3.33;;;;;;;27.34;43.98;69815.88;4987713;28;20053;-77
2022/06/23 09:30:39;;;;;;;8.05;3.10;;;;;;;27.38;44.10;69817.16;4982764;28;20058;-77
2022/06/23 09:33:22;;;;;;;6.35;3.22;;;;;;;27.56;42.69;69834.53;4985883;28;20060;-76
2022/06/23 09:36:14;;;;;;;7.75;3.20;;;;;;;27.60;44.19;69845.19;4987500;28;20050;-78
2022/06/23 09:38:42;;;;;;;5.43;3.08;;;;;;;27.59;43.76;69841.31;4999935;28;20559;-77
2022/06/23 09:41:35;;;;;;;6.97;3.60;;;;;;;27.62;43.08;69842.03;4967189;28;20053;-77
2022/06/23 09:44:28;;;;;;;8.40;3.13;;;;;;;27.75;43.63;69858.53;4981321;28;20042;-77
2022/06/23 09:47:19;;;;;;;5.57;3.17;;;;;;;27.96;43.73;69879.94;4987896;28;20046;-77
2022/06/23 09:50:17;;;;;;;5.15;3.00;;;;;;;28.09;43.03;69897.63;4983079;28;20109;-76
2022/06/23 09:53:24;;;;;;;6.05;3.00;;;;;;;28.38;43.04;69929.81;4987178;28;20092;-77
2022/06/23 09:56:08;;;;;;;6.45;3.38;;;;;;;28.51;42.38;69944.81;4990768;28;20046;-77
2022/06/23 09:59:07;;;;;;;5.60;3.47;;;;;;;28.56;43.27;69952.69;4985242;28;20682;-75
2022/06/23 10:01:50;;;;;;;5.95;3.40;;;;;;;28.70;41.73;69965.50;4980715;28;20469;-76
2022/06/23 10:04:30;;;;;;;7.95;3.53;;;;;;;28.83;41.27;69977.13;4981591;28;20053;-76
2022/06/23 10:07:17;;;;;;;5.80;3.05;;;;;;;28.78;42.78;69969.78;4987164;28;20117;-75
2022/06/23 10:10:21;;;;;;;5.80;3.53;;;;;;;28.72;39.63;69965.63;5002598;28;20430;-76
2022/06/23 10:12:49;;;;;;;4.85;3.17;;;;;;;28.91;41.28;69986.88;4966099;28;20486;-76
2022/06/23 10:15:24;;;;;;;6.70;3.40;;;;;;;28.97;39.26;69993.81;4971479;28;20042;-75
2022/06/23 10:18:11;;;;;;;5.63;3.47;;;;;;;29.09;39.34;70009.78;4987791;28;20113;-76
2022/06/23 10:20:55;;;;;;;5.18;3.20;;;;;;;29.06;38.71;70003.00;4984328;28;20063;-76
2022/06/23 10:23:53;;;;;;;4.53;3.20;;;;;;;29.09;39.15;70011.94;4987371;28;20034;-76
2022/06/23 10:26:32;;;;;;;;;;;;;;;29.08;39.18;70008.63;4987521;28;20177;-76
2022/06/23 10:29:12;;;;;;;6.95;3.45;;;;;;;28.81;39.46;69972.09;4986993;28;19925;-76
2022/06/23 10:31:46;;;;;;;6.72;3.55;;;;;;;28.72;40.23;69968.38;4986473;28;20046;-75
2022/06/23 10:34:22;;;;;;;5.82;3.53;;;;;;;;;;4986215;28;20030;-76
2022/06/23 10:37:00;;;;;;;6.03;3.50;;;;;;;28.95;39.56;69991.50;4985940;28;20587;-75
2022/06/23 10:39:25;;;;;;;5.20;3.00;;;;;;;29.31;39.64;70031.78;4977904;28;20085;-75
2022/06/23 10:42:12;;;;;;;6.47;3.47;;;;;;;29.61;39.35;70065.16;5002036;28;20482;-75
2022/06/23 10:44:53;;;;;;;5.18;3.58;;;;;;;29.41;37.97;70045.44;4984799;28;20042;-76
2022/06/23 10:47:48;;;;;;;7.82;4.20;;;;;;;29.27;38.31;70026.59;4972861;28;20468;-75
2022/06/23 10:50:30;;;;;;;7.15;3.70;;;;;;;29.49;39.30;70057.38;4984036;28;20134;-75
2022/06/23 10:53:41;;;;;;;5.65;3.42;;;;;;;29.48;38.66;70053.50;4986054;28;20038;-75
2022/06/23 10:56:28;;;;;;;5.85;3.67;;;;;;;29.40;38.72;70047.03;5000941;28;22233;-75
2022/06/23 10:59:18;;;;;;;6.25;3.38;;;;;;;29.70;38.43;70075.53;4984659;28;20069;-75
2022/06/23 11:01:58;;;;;;;5.63;3.25;;;;;;;29.89;37.57;70099.53;4983199;28;20069;-76
2022/06/23 11:04:52;;;;;;;6.53;3.30;;;;;;;29.86;37.55;70099.41;4985054;28;20070;-76
2022/06/23 11:07:42;;;;;;;6.22;3.78;;;;;;;29.79;37.28;70085.88;4979820;28;20083;-76
2022/06/23 11:10:22;;;;;;;6.03;4.00;;;;;;;29.89;37.02;70100.13;4973483;28;20544;-76
2022/06/23 11:13:30;;;;;;;5.85;3.50;;;;;;;29.82;37.11;70094.81;4978667;28;20054;-77
2022/06/23 11:16:04;;;;;;;6.03;3.42;;;;;;;30.06;37.42;70115.78;4981292;28;20101;-77
2022/06/23 11:18:50;;;;;;;7.07;3.85;;;;;;;30.29;36.38;70144.44;4981225;28;20497;-77
2022/06/23 11:21:42;;;;;;;6.22;3.80;;;;;;;30.40;36.92;70151.06;4979278;28;20081;-77
2022/06/23 11:24:47;;;;;;;11.55;3.92;;;;;;;30.25;36.63;70137.09;4982264;28;20065;-77
2022/06/23 11:27:53;;;;;;;7.75;3.85;;;;;;;30.20;36.93;70126.41;4975777;28;20074;-76
2022/06/23 11:30:34;;;;;;;6.75;3.40;;;;;;;30.64;36.06;70183.59;4940180;28;20086;-76
2022/06/23 11:33:15;;;;;;;5.28;3.53;;;;;;;30.79;35.88;70198.72;4922980;29;20047;-76
2022/06/23 11:36:08;;;;;;;6.40;3.70;;;;;;;30.80;35.57;70205.38;4970478;28;20109;-77
2022/06/23 11:38:41;;;;;;;6.30;3.50;;;;;;;30.95;35.22;70227.56;4987281;28;20038;-77
2022/06/23 11:41:23;;;;;;;9.13;3.40;;;;;;;31.14;35.02;70237.88;4980240;28;20035;-76
2022/06/23 11:43:51;;;;;;;6.70;3.20;;;;;;;31.34;33.81;70262.50;4985701;28;20046;-77
2022/06/23 11:46:45;;;;;;;6.53;3.67;;;;;;;31.37;33.91;70263.81;4988945;28;20596;-77
2022/06/23 11:49:11;;;;;;;5.57;3.38;;;;;;;31.34;32.92;70265.25;4991826;28;20042;-76
2022/06/23 11:51:57;;;;;;;5.57;3.38;;;;;;;31.20;34.11;70246.97;4990719;28;20122;-76
2022/06/23 11:54:42;;;;;;;7.72;3.47;;;;;;;31.36;34.30;70262.66;4996861;28;20046;-77
2022/06/23 11:57:32;;;;;;;5.20;3.42;;;;;;;31.61;33.12;70293.03;4988761;28;20520;-76
2022/06/23 12:00:13;;;;;;;7.82;3.70;;;;;;;31.39;33.46;70268.28;4990018;28;20177;-76
2022/06/23 12:03:11;;;;;;;6.05;3.38;;;;;;;31.36;35.02;70259.31;4989842;28;20046;-77
2022/06/23 12:06:04;;;;;;;4.95;3.38;;;;;;;31.63;34.08;70295.94;4989546;28;20096;-77
2022/06/23 12:08:50;;;;;;;6.32;3.60;;;;;;;31.68;34.14;70301.69;4988290;28;20117;-76
2022/06/23 12:11:15;;;;;;;8.45;3.47;;;;;;;31.82;33.40;70317.25;5004389;28;20057;-76
2022/06/23 12:13:42;;;;;;;7.28;3.53;;;;;;;31.91;33.13;70321.56;4990272;28;20658;-76
2022/06/23 12:16:07;;;;;;;6.65;4.10;;;;;;;31.97;33.17;70328.47;5005577;28;20031;-76
2022/06/23 12:18:56;;;;;;;5.45;4.03;;;;;;;32.07;33.35;70342.16;4990172;28;20042;-77
2022/06/23 12:21:51;;;;;;;6.03;3.83;;;;;;;31.99;32.45;70333.50;4993568;28;20070;-77
2022/06/23 12:24:27;;;;;;;5.68;3.85;;;;;;;31.87;32.32;70317.50;4974855;28;20046;-77
2022/06/23 12:27:05;;;;;;;5.00;3.80;;;;;;;31.90;33.18;70323.72;4986731;28;20050;-77
2022/06/23 12:29:50;;;;;;;6.85;3.90;;;;;;;32.25;32.84;70359.56;4984377;28;20043;-77
2022/06/23 12:32:44;;;;;;;6.88;3.70;;;;;;;32.27;31.90;70359.69;4986633;28;20042;-76
2022/06/23 12:35:31;;;;;;;5.38;4.18;;;;;;;32.22;32.89;70356.13;4995488;28;20441;-77
2022/06/23 12:38:14;;;;;;;7.97;3.92;;;;;;;32.10;32.57;70348.94;4987314;28;20042;-77
2022/06/23 12:40:54;;;;;;;7.10;3.92;;;;;;;32.14;33.45;70350.81;4984059;28;20054;-76
2022/06/23 12:43:43;;;;;;;6.10;3.70;;;;;;;32.27;32.67;70367.38;4980773;28;20062;-77
2022/06/23 12:46:14;;;;;;;5.28;3.35;;;;;;;32.46;32.13;70392.06;4990100;28;20034;-77
2022/06/23 12:49:00;;;;;;;7.82;3.42;;;;;;;32.62;31.45;70406.59;4990492;28;20041;-77
2022/06/23 12:51:58;;;;;;;4.07;3.55;;;;;;;32.64;31.86;70408.91;4985405;28;20038;-77
2022/06/23 12:54:36;;;;;;;;;;;;;;;33.03;31.60;70448.38;4980543;28;20054;-77